createdAt,value
2022-08-05T00:00:20.052Z,3.77
2022-08-05T00:02:51.117Z,4.38
2022-08-05T00:06:02.764Z,3.72
2022-08-05T00:09:15.815Z,4.72
2022-08-05T00:11:48.481Z,4.03
2022-08-05T00:14:20.837Z,4.03
2022-08-05T00:15:56.229Z,4.10
2022-08-05T00:16:52.995Z,4.00
2022-08-05T00:17:52.888Z,4.28
2022-08-05T00:19:01.741Z,3.60
2022-08-05T00:20:12.262Z,4.40
2022-08-05T00:21:23.410Z,3.93
2022-08-05T00:22:34.103Z,4.45
2022-08-05T00:23:53.753Z,4.07
2022-08-05T00:25:00.099Z,4.62
2022-08-05T00:26:11.268Z,4.22
2022-08-05T00:27:21.307Z,3.70
2022-08-05T00:28:32.953Z,4.18
2022-08-05T00:29:42.934Z,4.50
2022-08-05T00:30:53.627Z,4.20
2022-08-05T00:34:53.951Z,4.10
2022-08-05T00:34:55.421Z,3.97
2022-08-05T00:35:48.018Z,4.30
2022-08-05T00:37:11.391Z,4.20
2022-08-05T00:38:04.999Z,3.93
2022-08-05T00:40:31.881Z,4.32
2022-08-05T00:41:51.578Z,4.25
2022-08-05T00:44:15.325Z,4.12
2022-08-05T00:45:24.990Z,3.82
2022-08-05T00:47:57.228Z,4.07
2022-08-05T00:49:02.712Z,4.18
2022-08-05T00:50:12.648Z,3.85
2022-08-05T00:52:36.595Z,3.75
2022-08-05T00:54:00.820Z,3.85
2022-08-05T00:55:00.501Z,4.18
2022-08-05T00:56:10.046Z,3.95
2022-08-05T00:58:37.011Z,3.60
2022-08-05T00:59:46.329Z,3.90
2022-08-05T01:02:14.833Z,3.65
2022-08-05T01:03:31.028Z,4.28
2022-08-05T01:05:54.871Z,4.18
2022-08-05T01:08:40.576Z,4.25
2022-08-05T01:12:23.765Z,4.00
2022-08-05T01:13:59.335Z,3.38
2022-08-05T01:15:35.480Z,4.25
2022-08-05T01:18:04.073Z,3.77
2022-08-05T01:19:56.489Z,3.88
2022-08-05T01:20:54.444Z,4.25
2022-08-05T01:23:57.451Z,3.45
2022-08-05T01:25:11.479Z,3.80
2022-08-05T01:28:18.734Z,3.73
2022-08-05T01:32:18.416Z,3.65
2022-08-05T01:35:03.000Z,4.20
2022-08-05T01:36:17.567Z,4.83
2022-08-05T01:38:55.859Z,4.48
2022-08-05T01:40:07.323Z,3.85
2022-08-05T01:42:38.066Z,3.97
2022-08-05T01:43:52.032Z,4.28
2022-08-05T01:45:03.464Z,3.87
2022-08-05T01:46:16.092Z,3.78
2022-08-05T01:47:38.854Z,3.90
2022-08-05T01:48:39.483Z,4.30
2022-08-05T01:50:01.450Z,3.60
2022-08-05T01:51:12.548Z,3.93
2022-08-05T01:52:21.143Z,4.25
2022-08-05T01:53:54.648Z,3.85
2022-08-05T01:58:12.355Z,3.75
2022-08-05T01:58:12.461Z,3.93
2022-08-05T02:00:35.623Z,3.73
2022-08-05T02:03:31.253Z,3.60
2022-08-05T02:04:38.436Z,3.47
2022-08-05T02:05:53.485Z,3.33
2022-08-05T02:07:03.533Z,4.00
2022-08-05T02:08:14.913Z,3.85
2022-08-05T02:09:26.547Z,3.50
2022-08-05T02:12:28.571Z,3.78
2022-08-05T02:15:14.258Z,3.98
2022-08-05T02:22:47.985Z,4.20
2022-08-05T02:25:21.687Z,3.90
2022-08-05T02:29:59.452Z,3.86
2022-08-05T02:32:23.728Z,3.70
2022-08-05T02:33:57.836Z,4.35
2022-08-05T02:35:13.854Z,3.65
2022-08-05T02:36:23.038Z,3.60
2022-08-05T02:37:35.875Z,3.57
2022-08-05T02:38:53.553Z,3.82
2022-08-05T02:40:00.825Z,3.80
2022-08-05T02:42:30.768Z,3.55
2022-08-05T02:44:06.220Z,3.93
2022-08-05T02:46:08.425Z,3.90
2022-08-05T02:47:22.120Z,3.98
2022-08-05T02:49:50.155Z,4.25
2022-08-05T02:51:04.551Z,4.00
2022-08-05T02:52:29.652Z,3.35
2022-08-05T02:54:52.354Z,3.70
2022-08-05T02:56:03.357Z,3.58
2022-08-05T02:58:10.504Z,4.18
2022-08-05T02:58:31.774Z,4.32
2022-08-05T02:59:50.333Z,3.70
2022-08-05T03:02:20.049Z,3.75
2022-08-05T03:04:53.255Z,4.18
2022-08-05T03:08:00.583Z,3.92
2022-08-05T03:08:43.011Z,4.33
2022-08-05T03:09:52.945Z,3.70
2022-08-05T03:13:51.915Z,3.62
2022-08-05T03:16:24.557Z,3.98
2022-08-05T03:17:34.780Z,4.10
2022-08-05T03:20:21.202Z,3.63
2022-08-05T03:21:41.343Z,4.45
2022-08-05T03:23:58.325Z,4.03
2022-08-05T03:25:33.302Z,4.55
2022-08-05T03:26:31.378Z,4.58
2022-08-05T03:28:49.771Z,6.40
2022-08-05T03:30:08.472Z,5.50
2022-08-05T03:32:30.929Z,6.00
2022-08-05T03:33:51.116Z,6.48
2022-08-05T03:36:11.986Z,6.60
2022-08-05T03:38:44.475Z,5.72
2022-08-05T03:42:51.660Z,5.23
2022-08-05T03:44:09.830Z,5.28
2022-08-05T03:46:26.863Z,4.65
2022-08-05T03:47:41.414Z,5.65
2022-08-05T03:50:03.737Z,5.07
2022-08-05T03:55:06.810Z,4.90
2022-08-05T03:57:16.704Z,5.50
2022-08-05T03:58:28.905Z,5.37
2022-08-05T04:00:57.712Z,5.35
2022-08-05T04:03:29.311Z,7.17
2022-08-05T04:05:59.271Z,5.55
2022-08-05T04:07:10.620Z,5.68
2022-08-05T04:08:34.939Z,5.97
2022-08-05T04:09:32.731Z,5.90
2022-08-05T04:10:45.800Z,6.35
2022-08-05T04:11:58.243Z,5.55
2022-08-05T04:14:29.809Z,7.12
2022-08-05T04:15:37.090Z,7.33
2022-08-05T04:16:49.172Z,8.65
2022-08-05T04:18:07.406Z,7.68
2022-08-05T04:20:31.887Z,36.32
2022-08-05T04:22:58.787Z,9.58
2022-08-05T04:27:10.876Z,7.05
2022-08-05T04:29:55.454Z,7.27
2022-08-05T04:32:33.545Z,7.67
2022-08-05T04:35:00.179Z,7.60
2022-08-05T04:36:15.972Z,7.47
2022-08-05T04:38:02.616Z,7.75
2022-08-05T04:38:39.898Z,7.87
2022-08-05T04:40:59.742Z,8.63
2022-08-05T04:42:10.902Z,8.48
2022-08-05T04:43:21.918Z,8.90
2022-08-05T04:44:31.933Z,8.83
2022-08-05T04:45:49.041Z,9.55
2022-08-05T04:46:53.898Z,9.38
2022-08-05T04:49:38.348Z,10.27
2022-08-05T04:52:00.772Z,12.17
2022-08-05T04:53:11.932Z,11.37
2022-08-05T04:56:15.455Z,9.97
2022-08-05T04:59:38.247Z,9.47
2022-08-05T05:02:06.761Z,9.58
2022-08-05T05:07:11.174Z,13.67
2022-08-05T05:09:52.259Z,15.65
2022-08-05T05:11:10.644Z,16.57
2022-08-05T05:12:22.224Z,15.98
2022-08-05T05:14:50.755Z,13.35
2022-08-05T05:16:05.923Z,12.53
2022-08-05T05:18:31.004Z,11.95
2022-08-05T05:19:47.278Z,11.25
2022-08-05T05:22:22.601Z,11.22
2022-08-05T05:24:58.035Z,10.70
2022-08-05T05:28:56.218Z,10.55
2022-08-05T05:30:08.323Z,11.40
2022-08-05T05:31:19.372Z,9.17
2022-08-05T05:32:30.073Z,9.72
2022-08-05T05:33:41.145Z,9.80
2022-08-05T05:34:52.464Z,9.53
2022-08-05T05:37:17.054Z,8.30
2022-08-05T05:38:27.764Z,9.78
2022-08-05T05:40:53.523Z,10.45
2022-08-05T05:43:27.451Z,12.57
2022-08-05T05:44:36.516Z,14.25
2022-08-05T05:45:48.286Z,16.78
2022-08-05T05:46:54.835Z,13.83
2022-08-05T05:48:08.422Z,12.05
2022-08-05T05:49:22.575Z,11.60
2022-08-05T05:51:50.312Z,11.68
2022-08-05T05:54:20.639Z,10.77
2022-08-05T05:55:52.220Z,11.60
2022-08-05T05:58:02.995Z,11.57
2022-08-05T06:00:34.075Z,13.07
2022-08-05T06:04:25.661Z,12.92
2022-08-05T06:05:34.682Z,13.50
2022-08-05T06:06:47.774Z,13.85
2022-08-05T06:08:01.143Z,15.72
2022-08-05T06:10:22.343Z,15.92
2022-08-05T06:12:50.849Z,16.67
2022-08-05T06:16:45.453Z,13.95
2022-08-05T06:19:33.989Z,14.82
2022-08-05T06:23:12.131Z,17.95
2022-08-05T06:26:12.620Z,15.40
2022-08-05T06:29:48.964Z,18.07
2022-08-05T06:32:25.291Z,19.15
2022-08-05T06:36:09.862Z,19.98
2022-08-05T06:37:56.725Z,16.90
2022-08-05T06:38:35.956Z,16.85
2022-08-05T06:39:42.347Z,15.82
2022-08-05T06:40:53.538Z,15.38
2022-08-05T06:42:03.907Z,14.60
2022-08-05T06:43:59.047Z,15.07
2022-08-05T06:44:25.241Z,14.65
2022-08-05T06:46:51.278Z,14.12
2022-08-05T06:48:47.320Z,15.08
2022-08-05T06:49:12.752Z,13.52
2022-08-05T06:50:26.193Z,14.48
2022-08-05T06:51:40.739Z,14.82
2022-08-05T06:53:03.560Z,14.42
2022-08-05T06:55:18.015Z,12.92
2022-08-05T06:56:34.296Z,13.15
2022-08-05T06:58:58.774Z,14.45
2022-08-05T07:00:12.970Z,13.53
2022-08-05T07:03:03.974Z,13.72
2022-08-05T07:04:19.178Z,13.85
2022-08-05T07:05:37.755Z,14.58
2022-08-05T07:08:02.126Z,14.50
2022-08-05T07:09:11.851Z,18.73
2022-08-05T07:11:40.557Z,14.97
2022-08-05T07:13:08.925Z,17.25
2022-08-05T07:16:12.254Z,20.53
2022-08-05T07:18:09.067Z,15.68
2022-08-05T07:22:38.864Z,14.40
2022-08-05T07:25:22.090Z,13.83
2022-08-05T07:27:27.693Z,14.17
2022-08-05T07:32:53.249Z,14.93
2022-08-05T07:36:03.790Z,16.57
2022-08-05T07:39:24.696Z,18.55
2022-08-05T07:40:31.653Z,19.63
2022-08-05T07:42:07.927Z,18.90
2022-08-05T07:42:48.899Z,19.67
2022-08-05T07:45:17.489Z,17.97
2022-08-05T07:46:31.031Z,15.20
2022-08-05T07:49:01.973Z,12.62
2022-08-05T07:50:10.606Z,10.82
2022-08-05T07:51:23.092Z,11.85
2022-08-05T07:53:50.319Z,10.26
2022-08-05T07:54:56.932Z,10.97
2022-08-05T07:57:56.339Z,10.10
2022-08-05T07:58:58.717Z,12.08
2022-08-05T08:01:01.991Z,12.95
2022-08-05T08:03:44.095Z,13.70
2022-08-05T08:07:24.720Z,11.20
2022-08-05T08:08:35.356Z,11.53
2022-08-05T08:09:44.777Z,9.67
2022-08-05T08:13:29.197Z,13.62
2022-08-05T08:14:32.764Z,13.28
2022-08-05T08:16:56.722Z,15.35
2022-08-05T08:18:13.836Z,13.70
2022-08-05T08:20:43.402Z,15.85
2022-08-05T08:21:43.417Z,16.28
2022-08-05T08:24:16.353Z,15.98
2022-08-05T08:26:00.108Z,12.63
2022-08-05T08:27:56.343Z,12.17
2022-08-05T08:29:29.479Z,11.83
2022-08-05T08:30:29.811Z,11.33
2022-08-05T08:32:46.574Z,11.50
2022-08-05T08:35:13.749Z,12.60
2022-08-05T08:39:25.251Z,13.82
2022-08-05T08:40:37.051Z,15.80
2022-08-05T08:41:50.764Z,15.77
2022-08-05T08:45:24.220Z,15.03
2022-08-05T08:45:31.886Z,15.48
2022-08-05T08:46:43.808Z,15.93
2022-08-05T08:50:12.845Z,17.03
2022-08-05T08:54:43.928Z,18.10
2022-08-05T08:57:13.337Z,19.38
2022-08-05T08:58:26.080Z,19.10
2022-08-05T09:00:53.258Z,18.65
2022-08-05T09:03:23.210Z,19.00
2022-08-05T09:06:08.840Z,18.45
2022-08-05T09:09:50.985Z,17.27
2022-08-05T09:12:20.739Z,17.03
2022-08-05T09:14:58.725Z,17.55
2022-08-05T09:17:43.057Z,16.77
2022-08-05T09:18:43.951Z,17.50
2022-08-05T09:21:11.711Z,16.33
2022-08-05T09:22:31.350Z,16.45
2022-08-05T09:28:03.962Z,17.87
2022-08-05T09:30:17.988Z,17.13
2022-08-05T09:32:39.855Z,17.87
2022-08-05T09:32:46.805Z,19.08
2022-08-05T09:35:26.312Z,18.50
2022-08-05T09:36:54.954Z,18.05
2022-08-05T09:38:17.655Z,16.70
2022-08-05T09:39:22.028Z,17.95
2022-08-05T09:40:40.953Z,17.58
2022-08-05T09:43:40.790Z,18.48
2022-08-05T09:44:42.450Z,19.62
2022-08-05T09:47:14.044Z,20.10
2022-08-05T09:48:28.461Z,18.30
2022-08-05T09:51:15.266Z,19.32
2022-08-05T09:52:24.519Z,17.87
2022-08-05T09:53:53.167Z,18.53
2022-08-05T09:55:58.278Z,18.55
2022-08-05T09:56:36.144Z,17.88
2022-08-05T09:59:17.025Z,18.27
2022-08-05T10:00:25.572Z,18.92
2022-08-05T10:02:58.137Z,17.00
2022-08-05T10:05:32.727Z,17.65
2022-08-05T10:08:34.999Z,16.08
2022-08-05T10:10:59.408Z,18.15
2022-08-05T10:12:30.006Z,17.23
2022-08-05T10:14:55.231Z,18.85
2022-08-05T10:16:06.925Z,16.82
2022-08-05T10:18:32.886Z,17.10
2022-08-05T10:22:15.695Z,15.95
2022-08-05T10:24:49.162Z,16.48
2022-08-05T10:28:46.678Z,16.22
2022-08-05T10:33:00.859Z,15.87
2022-08-05T10:33:54.832Z,16.12
2022-08-05T10:36:23.635Z,15.15
2022-08-05T10:37:40.263Z,16.63
2022-08-05T10:40:17.683Z,15.90
2022-08-05T10:42:43.778Z,17.18
2022-08-05T10:45:40.016Z,15.52
2022-08-05T10:46:53.935Z,13.88
2022-08-05T10:48:31.695Z,15.60
2022-08-05T10:51:28.397Z,15.40
2022-08-05T10:52:49.496Z,14.60
2022-08-05T10:53:58.531Z,14.13
2022-08-05T10:56:29.101Z,14.70
2022-08-05T10:59:11.410Z,15.30
2022-08-05T11:03:25.083Z,14.33
2022-08-05T11:04:26.370Z,15.58
2022-08-05T11:05:36.603Z,14.20
2022-08-05T11:07:04.880Z,14.35
2022-08-05T11:08:34.266Z,14.97
2022-08-05T11:10:49.993Z,14.83
2022-08-05T11:13:17.889Z,14.53
2022-08-05T11:17:58.178Z,13.85
2022-08-05T11:18:47.085Z,13.83
2022-08-05T11:21:31.641Z,14.25
2022-08-05T11:24:14.873Z,14.10
2022-08-05T11:27:37.097Z,13.07
2022-08-05T11:28:49.432Z,11.90
2022-08-05T11:31:51.819Z,13.53
2022-08-05T11:36:07.550Z,15.65
2022-08-05T11:42:46.119Z,12.72
2022-08-05T11:47:10.147Z,12.35
2022-08-05T11:48:11.515Z,12.60
2022-08-05T11:50:39.215Z,12.57
2022-08-05T11:51:52.283Z,12.15
2022-08-05T11:54:32.800Z,12.55
2022-08-05T11:58:12.057Z,11.78
2022-08-05T11:59:23.702Z,11.42
2022-08-05T12:04:53.511Z,12.45
2022-08-05T12:08:03.304Z,12.58
2022-08-05T12:10:43.160Z,12.67
2022-08-05T12:11:45.474Z,12.64
2022-08-05T12:14:15.504Z,11.95
2022-08-05T12:15:33.945Z,11.65
2022-08-05T12:18:03.375Z,10.65
2022-08-05T12:20:27.152Z,10.98
2022-08-05T12:21:51.486Z,10.82
2022-08-05T12:23:12.682Z,10.60
2022-08-05T12:25:52.281Z,11.40
2022-08-05T12:27:09.637Z,11.50
2022-08-05T12:30:08.909Z,11.10
2022-08-05T12:32:36.081Z,12.43
2022-08-05T12:35:16.908Z,11.72
2022-08-05T12:37:45.965Z,10.53
2022-08-05T12:40:26.345Z,11.23
2022-08-05T12:42:59.443Z,10.40
2022-08-05T12:45:22.122Z,10.10
2022-08-05T12:46:35.306Z,10.75
2022-08-05T12:48:01.777Z,11.05
2022-08-05T12:50:25.585Z,11.35
2022-08-05T12:52:14.033Z,10.78
2022-08-05T12:54:30.405Z,10.77
2022-08-05T12:55:41.300Z,10.68
2022-08-05T12:58:39.196Z,9.75
2022-08-05T13:05:06.963Z,10.08
2022-08-05T13:07:57.393Z,9.55
2022-08-05T13:10:12.599Z,9.93
2022-08-05T13:12:02.258Z,9.65
2022-08-05T13:12:50.953Z,9.98
2022-08-05T13:14:05.789Z,9.92
2022-08-05T13:15:16.477Z,9.45
2022-08-05T13:16:27.801Z,9.63
2022-08-05T13:18:54.934Z,9.83
2022-08-05T13:21:28.474Z,10.32
2022-08-05T13:23:56.844Z,9.68
2022-08-05T13:26:38.894Z,9.78
2022-08-05T13:27:52.509Z,10.30
2022-08-05T13:29:01.617Z,9.40
2022-08-05T13:31:34.033Z,9.63
2022-08-05T13:34:24.127Z,9.63
2022-08-05T13:37:01.144Z,9.25
2022-08-05T13:40:14.160Z,11.83
2022-08-05T13:40:51.761Z,11.53
2022-08-05T13:43:22.175Z,9.30
2022-08-05T13:44:29.419Z,9.25
2022-08-05T13:45:43.089Z,9.45
2022-08-05T13:47:02.298Z,8.97
2022-08-05T13:48:09.975Z,9.08
2022-08-05T13:50:27.370Z,8.70
2022-08-05T13:51:41.239Z,9.20
2022-08-05T13:52:49.977Z,8.95
2022-08-05T13:54:00.104Z,9.05
2022-08-05T13:55:11.964Z,9.18
2022-08-05T13:56:27.718Z,9.43
2022-08-05T13:58:53.858Z,9.00
2022-08-05T14:01:21.996Z,8.95
2022-08-05T14:06:04.774Z,8.73
2022-08-05T14:06:47.839Z,9.15
2022-08-05T14:09:13.660Z,9.35
2022-08-05T14:10:28.545Z,9.15
2022-08-05T14:12:54.625Z,10.00
2022-08-05T14:14:04.602Z,10.65
2022-08-05T14:16:25.735Z,9.72
2022-08-05T14:17:35.398Z,8.95
2022-08-05T14:18:44.720Z,9.12
2022-08-05T14:19:56.819Z,9.68
2022-08-05T14:22:21.345Z,8.67
2022-08-05T14:23:36.485Z,9.30
2022-08-05T14:25:59.554Z,9.48
2022-08-05T14:28:26.947Z,9.50
2022-08-05T14:31:02.975Z,9.73
2022-08-05T14:33:32.510Z,9.62
2022-08-05T14:34:39.567Z,9.07
2022-08-05T14:35:50.470Z,10.05
2022-08-05T14:38:34.029Z,9.32
2022-08-05T14:40:56.245Z,9.43
2022-08-05T14:43:22.094Z,9.25
2022-08-05T14:46:01.921Z,8.95
2022-08-05T14:48:02.658Z,9.48
2022-08-05T14:48:33.111Z,9.15
2022-08-05T14:49:59.569Z,9.73
2022-08-05T14:52:08.056Z,10.62
2022-08-05T14:54:34.547Z,9.32
2022-08-05T14:55:48.354Z,8.85
2022-08-05T14:56:57.495Z,8.58
2022-08-05T14:58:14.225Z,10.00
2022-08-05T14:59:24.957Z,8.85
2022-08-05T15:00:36.556Z,8.82
2022-08-05T15:03:05.645Z,9.23
2022-08-05T15:06:08.270Z,8.23
2022-08-05T15:08:17.872Z,6.97
2022-08-05T15:09:52.342Z,6.03
2022-08-05T15:11:53.731Z,7.60
2022-08-05T15:13:05.391Z,6.10
2022-08-05T15:15:53.997Z,7.55
2022-08-05T15:18:09.611Z,8.15
2022-08-05T15:20:46.224Z,9.05
2022-08-05T15:22:00.253Z,8.70
2022-08-05T15:23:12.006Z,8.73
2022-08-05T15:24:21.769Z,9.00
2022-08-05T15:26:47.418Z,8.08
2022-08-05T15:27:57.804Z,6.67
2022-08-05T15:29:08.062Z,7.50
2022-08-05T15:30:18.919Z,7.45
2022-08-05T15:31:34.496Z,7.13
2022-08-05T15:32:40.380Z,7.78
2022-08-05T15:35:10.723Z,8.18
2022-08-05T15:38:32.716Z,8.95
2022-08-05T15:41:55.985Z,8.60
2022-08-05T15:43:08.008Z,9.23
2022-08-05T15:44:09.711Z,9.67
2022-08-05T15:45:38.747Z,9.20
2022-08-05T15:46:31.728Z,10.30
2022-08-05T15:47:43.038Z,9.93
2022-08-05T15:49:00.615Z,9.57
2022-08-05T15:52:13.001Z,9.35
2022-08-05T15:52:53.774Z,9.52
2022-08-05T15:53:52.641Z,8.90
2022-08-05T15:55:03.220Z,9.45
2022-08-05T15:56:14.404Z,9.30
2022-08-05T15:58:37.155Z,38.48
2022-08-05T15:59:46.376Z,16.77
2022-08-05T16:02:19.577Z,10.03
2022-08-05T16:04:46.082Z,10.07
2022-08-05T16:07:23.255Z,11.36
2022-08-05T16:09:51.202Z,10.55
2022-08-05T16:11:02.704Z,10.03
2022-08-05T16:13:34.435Z,10.67
2022-08-05T16:14:41.676Z,10.93
2022-08-05T16:20:04.368Z,13.67
2022-08-05T16:22:34.335Z,12.77
2022-08-05T16:25:10.108Z,12.47
2022-08-05T16:26:26.274Z,12.02
2022-08-05T16:28:01.014Z,14.17
2022-08-05T16:29:58.326Z,12.63
2022-08-05T16:31:07.516Z,11.22
2022-08-05T16:32:28.383Z,11.22
2022-08-05T16:33:31.870Z,11.72
2022-08-05T16:36:00.146Z,11.82
2022-08-05T16:38:28.977Z,12.85
2022-08-05T16:42:12.198Z,11.65
2022-08-05T16:42:27.420Z,12.10
2022-08-05T16:44:54.272Z,11.48
2022-08-05T16:46:07.276Z,11.70
2022-08-05T16:47:29.064Z,15.70
2022-08-05T16:48:33.813Z,13.80
2022-08-05T16:49:38.722Z,13.23
2022-08-05T16:52:06.788Z,14.27
2022-08-05T16:54:32.902Z,10.04
2022-08-05T16:58:43.789Z,12.08
2022-08-05T17:01:11.553Z,9.28
2022-08-05T17:05:25.990Z,10.20
2022-08-05T17:07:54.693Z,10.62
2022-08-05T17:10:33.051Z,9.23
2022-08-05T17:12:57.555Z,8.98
2022-08-05T17:14:08.969Z,8.32
2022-08-05T17:15:20.749Z,8.68
2022-08-05T17:16:33.400Z,8.65
2022-08-05T17:17:42.877Z,8.67
2022-08-05T17:18:52.029Z,8.05
2022-08-05T17:21:19.977Z,8.70
2022-08-05T17:22:32.354Z,8.45
2022-08-05T17:25:00.235Z,9.30
2022-08-05T17:27:33.285Z,9.10
2022-08-05T17:31:24.387Z,8.77
2022-08-05T17:34:01.719Z,8.35
2022-08-05T17:35:12.535Z,8.63
2022-08-05T17:36:32.412Z,8.80
2022-08-05T17:38:53.558Z,9.20
2022-08-05T17:40:10.159Z,8.40
2022-08-05T17:42:38.230Z,9.20
2022-08-05T17:45:17.849Z,8.77
2022-08-05T17:48:59.771Z,9.02
2022-08-05T17:52:53.216Z,9.43
2022-08-05T17:55:09.017Z,9.60
2022-08-05T17:59:01.158Z,11.25
2022-08-05T18:00:14.203Z,9.80
2022-08-05T18:02:39.065Z,10.35
2022-08-05T18:04:03.629Z,9.92
2022-08-05T18:06:17.600Z,9.83
2022-08-05T18:08:52.433Z,10.63
2022-08-05T18:11:29.674Z,9.68
2022-08-05T18:13:53.210Z,9.40
2022-08-05T18:15:08.755Z,9.03
2022-08-05T18:17:58.811Z,9.60
2022-08-05T18:22:57.351Z,10.82
2022-08-05T18:25:33.012Z,10.80
2022-08-05T18:26:39.580Z,9.98
2022-08-05T18:29:05.086Z,9.83
2022-08-05T18:30:16.218Z,10.70
2022-08-05T18:31:33.922Z,9.35
2022-08-05T18:33:54.254Z,10.50
2022-08-05T18:35:07.011Z,11.13
2022-08-05T18:37:40.467Z,10.43
2022-08-05T18:41:50.681Z,10.68
2022-08-05T18:42:41.710Z,10.67
2022-08-05T18:43:51.045Z,10.50
2022-08-05T18:45:06.845Z,10.23
2022-08-05T18:46:19.471Z,10.12
2022-08-05T18:48:45.665Z,10.53
2022-08-05T18:50:15.443Z,9.45
2022-08-05T18:52:59.141Z,9.78
2022-08-05T18:54:11.455Z,9.48
2022-08-05T18:56:36.035Z,10.53
2022-08-05T18:57:52.680Z,10.23
2022-08-05T18:59:01.227Z,11.45
2022-08-05T19:01:33.163Z,9.68
2022-08-05T19:03:56.609Z,10.10
2022-08-05T19:07:52.475Z,10.22
2022-08-05T19:10:26.491Z,9.30
2022-08-05T19:12:48.425Z,9.72
2022-08-05T19:16:46.683Z,9.23
2022-08-05T19:18:08.486Z,9.62
2022-08-05T19:20:25.014Z,10.53
2022-08-05T19:22:48.873Z,10.78
2022-08-05T19:26:54.723Z,10.80
2022-08-05T19:29:09.437Z,9.75
2022-08-05T19:31:51.152Z,10.72
2022-08-05T19:32:59.860Z,10.50
2022-08-05T19:35:26.844Z,11.10
2022-08-05T19:38:11.818Z,11.03
2022-08-05T19:42:07.373Z,10.42
2022-08-05T19:44:04.195Z,10.13
2022-08-05T19:44:29.096Z,9.55
2022-08-05T19:45:38.362Z,9.90
2022-08-05T19:46:50.355Z,10.28
2022-08-05T19:47:59.484Z,9.30
2022-08-05T19:50:24.198Z,11.08
2022-08-05T19:52:51.495Z,9.43
2022-08-05T19:56:15.640Z,8.53
2022-08-05T19:56:39.132Z,8.68
2022-08-05T19:59:51.606Z,9.02
2022-08-05T20:00:17.728Z,9.07
2022-08-05T20:02:44.236Z,8.40
2022-08-05T20:05:16.756Z,8.53
2022-08-05T20:07:49.415Z,8.35
2022-08-05T20:09:13.607Z,8.60
2022-08-05T20:10:13.149Z,8.85
2022-08-05T20:12:39.167Z,9.02
2022-08-05T20:15:08.753Z,9.05
2022-08-05T20:19:02.552Z,9.32
2022-08-05T20:21:30.003Z,9.88
2022-08-05T20:24:10.084Z,9.67
2022-08-05T20:26:34.338Z,10.25
2022-08-05T20:27:44.457Z,10.52
2022-08-05T20:28:56.214Z,8.75
2022-08-05T20:31:37.341Z,6.02
2022-08-05T20:32:45.191Z,6.38
2022-08-05T20:35:05.485Z,5.17
2022-08-05T20:36:21.048Z,6.07
2022-08-05T20:38:53.329Z,5.32
2022-08-05T20:39:58.287Z,6.22
2022-08-05T20:42:23.110Z,6.93
2022-08-05T20:44:51.138Z,7.90
2022-08-05T20:46:02.660Z,7.95
2022-08-05T20:48:27.002Z,8.65
2022-08-05T20:49:38.110Z,8.30
2022-08-05T20:50:48.681Z,9.00
2022-08-05T20:51:59.456Z,8.78
2022-08-05T20:53:16.113Z,9.12
2022-08-05T20:56:07.223Z,9.05
2022-08-05T20:56:54.123Z,9.55
2022-08-05T21:00:49.524Z,9.13
2022-08-05T21:03:13.577Z,9.57
2022-08-05T21:04:41.644Z,9.35
2022-08-05T21:05:54.338Z,7.32
2022-08-05T21:07:09.231Z,6.65
2022-08-05T21:08:18.319Z,6.28
2022-08-05T21:09:28.254Z,5.92
2022-08-05T21:12:09.901Z,5.62
2022-08-05T21:14:35.229Z,5.85
2022-08-05T21:17:11.143Z,7.52
2022-08-05T21:18:21.345Z,7.48
2022-08-05T21:19:47.311Z,7.78
2022-08-05T21:22:00.382Z,7.60
2022-08-05T21:24:27.891Z,8.57
2022-08-05T21:28:23.829Z,6.60
2022-08-05T21:29:33.599Z,6.50
2022-08-05T21:30:45.837Z,6.05
2022-08-05T21:31:57.107Z,6.03
2022-08-05T21:34:25.033Z,5.60
2022-08-05T21:36:49.198Z,6.15
2022-08-05T21:39:28.163Z,6.02
2022-08-05T21:40:38.524Z,5.43
2022-08-05T21:43:05.845Z,5.82
2022-08-05T21:44:16.491Z,5.77
2022-08-05T21:46:42.413Z,5.70
2022-08-05T21:49:11.830Z,5.82
2022-08-05T21:53:16.153Z,7.27
2022-08-05T21:56:01.136Z,7.47
2022-08-05T21:58:10.262Z,8.02
2022-08-05T21:59:24.409Z,8.98
2022-08-05T22:00:32.357Z,6.98
2022-08-05T22:02:56.305Z,6.03
2022-08-05T22:04:06.069Z,5.73
2022-08-05T22:05:17.649Z,6.20
2022-08-05T22:06:37.042Z,6.00
2022-08-05T22:08:57.225Z,5.55
2022-08-05T22:11:34.883Z,5.57
2022-08-05T22:14:33.837Z,5.77
2022-08-05T22:16:01.210Z,4.95
2022-08-05T22:16:51.011Z,5.13
2022-08-05T22:18:58.962Z,5.20
2022-08-05T22:20:14.928Z,5.85
2022-08-05T22:21:23.606Z,5.90
2022-08-05T22:24:13.338Z,5.32
2022-08-05T22:27:19.536Z,5.83
2022-08-05T22:28:29.160Z,6.50
2022-08-05T22:29:38.903Z,7.27
2022-08-05T22:32:05.749Z,6.05
2022-08-05T22:33:17.112Z,6.27
2022-08-05T22:34:30.137Z,5.10
2022-08-05T22:36:56.994Z,5.00
2022-08-05T22:39:22.620Z,4.87
2022-08-05T22:42:11.718Z,5.10
2022-08-05T22:43:12.403Z,4.40
2022-08-05T22:45:38.586Z,4.85
2022-08-05T22:46:47.871Z,5.63
2022-08-05T22:50:17.334Z,6.25
2022-08-05T22:53:15.966Z,6.75
2022-08-05T22:54:24.064Z,7.70
2022-08-05T22:55:37.219Z,7.85
2022-08-05T22:56:48.076Z,6.85
2022-08-05T22:57:59.411Z,6.23
2022-08-05T22:59:45.083Z,5.80
2022-08-05T23:00:22.932Z,5.62
2022-08-05T23:02:47.633Z,5.68
2022-08-05T23:03:59.632Z,5.60
2022-08-05T23:05:08.652Z,5.07
2022-08-05T23:07:31.050Z,4.67
2022-08-05T23:08:40.423Z,4.88
2022-08-05T23:11:06.082Z,4.93
2022-08-05T23:12:23.808Z,5.67
2022-08-05T23:13:34.356Z,5.85
2022-08-05T23:14:47.421Z,6.25
2022-08-05T23:17:34.723Z,6.95
2022-08-05T23:19:56.154Z,7.48
2022-08-05T23:21:02.779Z,8.15
2022-08-05T23:22:12.400Z,8.05
2022-08-05T23:23:23.359Z,6.80
2022-08-05T23:25:55.179Z,5.67
2022-08-05T23:28:17.495Z,5.33
2022-08-05T23:32:11.233Z,4.97
2022-08-05T23:33:22.491Z,4.75
2022-08-05T23:34:31.481Z,4.85
2022-08-05T23:35:41.504Z,4.62
2022-08-05T23:36:50.536Z,5.10
2022-08-05T23:39:23.732Z,5.40
2022-08-05T23:40:32.708Z,6.52
2022-08-05T23:41:48.433Z,6.40
2022-08-05T23:42:57.309Z,6.65
2022-08-05T23:44:08.646Z,6.45
2022-08-05T23:46:32.971Z,7.07
2022-08-05T23:47:47.999Z,7.45
2022-08-05T23:48:59.627Z,6.35
2022-08-05T23:51:23.744Z,5.25
2022-08-05T23:52:35.862Z,5.00
2022-08-05T23:53:47.177Z,5.18
2022-08-05T23:56:14.501Z,4.75
2022-08-05T23:58:42.548Z,5.62
